Tenerife > ESTACION METEOROLÓGICA Los Rodeos - Aeropuerto Norte

DATOS ACTUALES Online

Ultima actulizacion 40 minutos

15.7 ºC

Temperatura

85

Humedad (%)

1017.7

Presión (mb)

0

Precipitación (mm)

7.7 W

Viento (Km/h)

DATOS DIARIOS

Temperatura últimas 24 horas (ºC)

Humedad últimas 24 horas (%)

Presión atmosférica últimas 24 horas (mb)

Precipitaciones últimas 23 horas (mm)

Viento últimas 24 horas (Km/h)

Hora Temperatura (°C) ºC Precipitación (mm) mm Presión (mb) mb Humedad (%) % Viento (Km/h) km/h
29 - 00:00 14.9 0 1018 90 8.7 W
29 - 01:00 14.8 0 1019 89 7.6 NW
29 - 02:00 14.6 0 1019 92 5.5 W
29 - 03:00 14.4 0 1018 92 5.6 W
29 - 04:00 14 0 1018 84 4.2 W
29 - 05:00 13.9 0 1018 85 5 W
29 - 06:00 14.3 0 1017 83 4.3 W
29 - 07:00 14.4 0 1017 85 4.4 NW
29 - 08:00 15.3 0 1018 82 5 W
29 - 09:00 16.2 0 1018 75 3.6 W
29 - 10:00 16.7 0 1018 70 3.6 W
29 - 11:00 17.7 0 1018 65 2.2 NW
29 - 12:00 19.2 0 1018 61 4 NW
29 - 13:00 18.8 0 1018 66 4.6 W
29 - 14:00 18 0 1017 73 5 W
29 - 15:00 17.9 0 1017 71 4.8 W
29 - 16:00 17.7 0 1017 72 5.1 NW
29 - 17:00 17.5 0 1017 72 4.2 W
29 - 18:00 17.4 0 1017 69 4.6 W
29 - 19:00 17.5 0 1017 69 5 NW
29 - 20:00 16.6 0 1017 75 7.4 W
29 - 21:00 16 0 1017 81 6.1 W
29 - 22:00 16 0 1017 83 5.5 W
29 - 23:00 15.7 0 1018 86 6 W
30 - 00:00 15.7 0 1018 85 7.7 W
Apalmet utiliza cookies propias y de terceros para mejorar la usabilidad y la experiencia web. Política de cookies.